createdAt,value
2019-02-04T00:01:11.631Z,22.33
2019-02-04T00:03:37.669Z,18.43
2019-02-04T00:06:03.695Z,20.50
2019-02-04T00:08:29.803Z,23.73
2019-02-04T00:10:55.844Z,23.07
2019-02-04T00:13:21.876Z,18.53
2019-02-04T00:15:47.897Z,20.93
2019-02-04T00:18:13.927Z,19.63
2019-02-04T00:20:39.951Z,18.80
2019-02-04T00:23:06.031Z,21.23
2019-02-04T00:25:32.507Z,21.53
2019-02-04T00:27:58.575Z,20.50
2019-02-04T00:30:25.289Z,23.20
2019-02-04T00:32:51.319Z,19.67
2019-02-04T00:35:17.329Z,20.73
2019-02-04T00:37:43.339Z,17.70
2019-02-04T00:40:19.175Z,21.90
2019-02-04T00:42:45.707Z,20.77
2019-02-04T00:45:11.724Z,23.73
2019-02-04T00:47:37.859Z,17.80
2019-02-04T00:50:06.075Z,18.60
2019-02-04T00:52:32.099Z,19.80
2019-02-04T00:54:58.140Z,21.70
2019-02-04T00:57:24.171Z,19.43
2019-02-04T00:59:50.179Z,19.90
2019-02-04T01:02:16.615Z,14.43
2019-02-04T01:04:42.651Z,20.10
2019-02-04T01:07:08.867Z,19.53
2019-02-04T01:09:34.875Z,22.03
2019-02-04T01:12:01.143Z,18.50
2019-02-04T01:14:27.183Z,16.43
2019-02-04T01:17:03.034Z,16.87
2019-02-04T01:19:21.111Z,24.10
2019-02-04T01:21:47.143Z,18.33
2019-02-04T01:24:13.157Z,24.27
2019-02-04T01:26:39.192Z,19.73
2019-02-04T01:29:05.231Z,20.97
2019-02-04T01:31:31.268Z,24.87
2019-02-04T01:33:57.279Z,24.00
2019-02-04T01:36:23.308Z,23.03
2019-02-04T01:38:49.833Z,20.80
2019-02-04T01:41:15.880Z,22.53
2019-02-04T01:43:41.911Z,16.10
2019-02-04T01:46:07.920Z,18.73
2019-02-04T01:48:33.951Z,16.40
2019-02-04T01:50:59.959Z,24.53
2019-02-04T01:53:26.001Z,21.43
2019-02-04T01:55:52.013Z,19.60
2019-02-04T01:58:18.325Z,29.03
2019-02-04T02:00:44.377Z,27.53
2019-02-04T02:03:10.428Z,20.63
2019-02-04T02:05:36.460Z,22.17
2019-02-04T02:08:02.871Z,28.43
2019-02-04T02:10:28.911Z,17.97
2019-02-04T02:12:54.931Z,17.87
2019-02-04T02:15:21.043Z,25.57
2019-02-04T02:17:47.596Z,18.53
2019-02-04T02:20:16.907Z,19.10
2019-02-04T02:22:42.920Z,17.50
2019-02-04T02:25:08.951Z,19.60
2019-02-04T02:27:35.056Z,17.07
2019-02-04T02:30:01.120Z,20.60
2019-02-04T02:32:27.150Z,18.17
2019-02-04T02:34:53.555Z,17.47
2019-02-04T02:37:19.590Z,19.43
2019-02-04T02:39:45.626Z,18.47
2019-02-04T02:42:11.675Z,21.17
2019-02-04T02:44:37.696Z,28.00
2019-02-04T02:47:03.725Z,21.97
2019-02-04T02:49:30.176Z,20.37
2019-02-04T02:51:56.220Z,25.07
2019-02-04T02:54:22.232Z,21.73
2019-02-04T02:56:48.276Z,25.77
2019-02-04T02:59:14.298Z,18.57
2019-02-04T03:01:40.324Z,20.10
2019-02-04T03:04:06.343Z,20.80
2019-02-04T03:06:32.424Z,27.33
2019-02-04T03:08:58.464Z,26.00
2019-02-04T03:11:24.480Z,27.25
2019-02-04T03:13:50.887Z,25.67
2019-02-04T03:16:16.985Z,21.60
2019-02-04T03:18:43.020Z,24.87
2019-02-04T03:21:09.055Z,25.00
2019-02-04T03:23:35.091Z,21.23
2019-02-04T03:26:01.521Z,23.07
2019-02-04T03:28:27.571Z,24.00
2019-02-04T03:30:53.612Z,25.87
2019-02-04T03:33:20.024Z,24.80
2019-02-04T03:35:46.038Z,25.43
2019-02-04T03:38:12.072Z,23.77
2019-02-04T03:40:38.106Z,21.87
2019-02-04T03:43:04.132Z,27.90
2019-02-04T03:45:30.229Z,34.80
2019-02-04T03:48:04.579Z,35.43
2019-02-04T03:50:24.191Z,30.97
2019-02-04T03:52:50.607Z,29.97
2019-02-04T03:55:16.648Z,24.73
2019-02-04T03:57:42.660Z,30.57
2019-02-04T04:00:20.487Z,29.13
2019-02-04T04:02:46.523Z,30.03
2019-02-04T04:05:12.535Z,25.37
2019-02-04T04:07:38.972Z,30.33
2019-02-04T04:10:06.826Z,23.90
2019-02-04T04:12:32.860Z,27.97
2019-02-04T04:14:58.872Z,28.47
2019-02-04T04:17:24.903Z,26.07
2019-02-04T04:19:50.927Z,23.50
2019-02-04T04:22:16.960Z,26.63
2019-02-04T04:24:42.996Z,25.73
2019-02-04T04:27:09.420Z,23.30
2019-02-04T04:29:35.480Z,30.43
2019-02-04T04:32:01.499Z,27.50
2019-02-04T04:34:28.433Z,30.43
2019-02-04T04:36:54.449Z,24.03
2019-02-04T04:39:40.360Z,26.37
2019-02-04T04:42:06.676Z,24.90
2019-02-04T04:44:32.720Z,27.80
2019-02-04T04:46:58.743Z,25.63
2019-02-04T04:49:24.756Z,24.03
2019-02-04T04:51:50.796Z,24.43
2019-02-04T04:54:16.808Z,25.00
2019-02-04T04:56:42.826Z,20.00
2019-02-04T04:59:08.875Z,22.10
2019-02-04T05:01:35.007Z,27.97
2019-02-04T05:04:01.043Z,26.90
2019-02-04T05:06:27.068Z,32.80
2019-02-04T05:08:53.144Z,27.50
2019-02-04T05:11:19.159Z,26.17
2019-02-04T05:13:45.196Z,32.00
2019-02-04T05:16:11.207Z,26.63
2019-02-04T05:18:38.410Z,28.57
2019-02-04T05:21:04.671Z,27.73
2019-02-04T05:23:30.863Z,23.53
2019-02-04T05:25:59.792Z,22.70
2019-02-04T05:28:25.804Z,24.40
2019-02-04T05:30:51.839Z,27.40
2019-02-04T05:33:17.882Z,21.50
2019-02-04T05:35:43.892Z,26.90
2019-02-04T05:38:10.233Z,28.07
2019-02-04T05:40:56.136Z,26.77
2019-02-04T05:43:22.200Z,28.13
2019-02-04T05:45:48.217Z,25.50
2019-02-04T05:48:14.251Z,24.57
2019-02-04T05:50:47.363Z,29.83
2019-02-04T05:53:13.413Z,30.33
2019-02-04T05:55:39.441Z,38.43
2019-02-04T05:58:05.506Z,32.03
2019-02-04T06:00:36.632Z,35.00
2019-02-04T06:03:02.696Z,32.57
2019-02-04T06:05:28.744Z,34.40
2019-02-04T06:07:55.284Z,24.60
2019-02-04T06:10:22.802Z,27.73
2019-02-04T06:12:48.851Z,30.50
2019-02-04T06:15:15.568Z,32.83
2019-02-04T06:17:41.612Z,29.20
2019-02-04T06:20:11.447Z,32.97
2019-02-04T06:22:37.496Z,29.07
2019-02-04T06:25:25.324Z,29.87
2019-02-04T06:27:51.420Z,24.90
2019-02-04T06:30:17.483Z,28.43
2019-02-04T06:32:43.523Z,25.03
2019-02-04T06:35:10.342Z,25.80
2019-02-04T06:37:36.413Z,26.13
2019-02-04T06:40:06.148Z,30.80
2019-02-04T06:42:32.162Z,31.33
2019-02-04T06:44:58.192Z,30.03
2019-02-04T06:47:24.204Z,28.43
2019-02-04T06:49:50.267Z,26.80
2019-02-04T06:52:16.304Z,31.10
2019-02-04T06:54:42.357Z,33.20
2019-02-04T06:57:08.378Z,29.77
2019-02-04T06:59:34.712Z,27.73
2019-02-04T07:02:00.732Z,25.10
2019-02-04T07:04:26.773Z,27.30
2019-02-04T07:06:52.787Z,32.37
2019-02-04T07:09:18.799Z,28.90
2019-02-04T07:11:44.839Z,33.37
2019-02-04T07:14:10.856Z,20.90
2019-02-04T07:16:36.912Z,30.03
2019-02-04T07:19:03.327Z,27.77
2019-02-04T07:21:29.371Z,27.67
2019-02-04T07:23:55.379Z,37.70
2019-02-04T07:26:21.411Z,34.63
2019-02-04T07:28:47.427Z,35.83
2019-02-04T07:31:13.463Z,36.77
2019-02-04T07:33:39.503Z,41.33
2019-02-04T07:36:05.548Z,36.10
2019-02-04T07:38:31.562Z,41.03
2019-02-04T07:40:57.599Z,40.07
2019-02-04T07:43:23.615Z,35.73
2019-02-04T07:45:49.660Z,41.23
2019-02-04T07:48:15.718Z,41.27
2019-02-04T07:50:41.716Z,42.23
2019-02-04T07:53:07.756Z,42.60
2019-02-04T07:55:33.763Z,44.83
2019-02-04T07:57:59.812Z,46.33
2019-02-04T08:00:31.706Z,39.47
2019-02-04T08:02:57.952Z,40.10
2019-02-04T08:05:24.076Z,35.33
2019-02-04T08:07:50.106Z,43.07
2019-02-04T08:10:16.139Z,40.37
2019-02-04T08:12:42.256Z,37.37
2019-02-04T08:15:17.553Z,41.10
2019-02-04T08:17:43.573Z,43.05
2019-02-04T08:20:09.704Z,40.43
2019-02-04T08:22:35.720Z,41.10
2019-02-04T08:25:02.051Z,35.50
2019-02-04T08:27:28.095Z,38.13
2019-02-04T08:29:54.219Z,31.47
2019-02-04T08:32:20.303Z,37.00
2019-02-04T08:34:46.716Z,35.10
2019-02-04T08:37:12.745Z,37.40
2019-02-04T08:39:38.881Z,57.50
2019-02-04T08:42:05.005Z,32.93
2019-02-04T08:44:31.059Z,35.60
2019-02-04T08:46:57.107Z,36.07
2019-02-04T08:49:23.120Z,35.90
2019-02-04T08:51:49.143Z,35.23
2019-02-04T08:54:15.263Z,36.07
2019-02-04T08:56:43.102Z,44.33
2019-02-04T08:59:09.312Z,38.60
2019-02-04T09:01:35.341Z,36.43
2019-02-04T09:04:01.391Z,34.80
2019-02-04T09:06:27.412Z,37.00
2019-02-04T09:08:53.428Z,31.20
2019-02-04T09:11:19.474Z,30.37
2019-02-04T09:13:45.484Z,28.30
2019-02-04T09:16:11.531Z,30.60
2019-02-04T09:18:44.850Z,32.10
2019-02-04T09:21:05.801Z,30.20
2019-02-04T09:23:31.917Z,28.20
2019-02-04T09:25:57.950Z,30.17
2019-02-04T09:28:23.968Z,35.17
2019-02-04T09:30:50.046Z,29.87
2019-02-04T09:33:16.159Z,28.87
2019-02-04T09:35:42.175Z,35.33
2019-02-04T09:38:08.512Z,25.80
2019-02-04T09:40:39.891Z,31.97
2019-02-04T09:43:06.226Z,27.63
2019-02-04T09:45:32.267Z,31.90
2019-02-04T09:47:58.283Z,38.67
2019-02-04T09:50:50.756Z,30.30
2019-02-04T09:53:16.773Z,28.67
2019-02-04T09:55:42.783Z,35.73
2019-02-04T09:58:08.819Z,31.73
2019-02-04T10:00:35.341Z,29.63
2019-02-04T10:03:01.392Z,33.35
2019-02-04T10:05:27.402Z,28.20
2019-02-04T10:07:53.469Z,30.37
2019-02-04T10:10:22.185Z,34.10
2019-02-04T10:12:48.221Z,27.07
2019-02-04T10:15:16.838Z,26.70
2019-02-04T10:17:43.013Z,25.30
2019-02-04T10:20:12.354Z,28.40
2019-02-04T10:22:38.431Z,25.13
2019-02-04T10:25:07.503Z,30.77
2019-02-04T10:27:35.515Z,26.17
2019-02-04T10:30:01.539Z,34.00
2019-02-04T10:32:27.681Z,27.60
2019-02-04T10:34:53.793Z,26.13
2019-02-04T10:37:19.839Z,26.33
2019-02-04T10:39:45.922Z,35.57
2019-02-04T10:42:11.947Z,32.37
2019-02-04T10:44:38.387Z,29.03
2019-02-04T10:47:04.474Z,28.20
2019-02-04T10:49:30.612Z,26.57
2019-02-04T10:51:56.651Z,29.43
2019-02-04T10:54:22.668Z,28.13
2019-02-04T10:56:48.782Z,32.13
2019-02-04T10:59:14.832Z,29.90
2019-02-04T11:01:40.876Z,25.30
2019-02-04T11:04:07.032Z,23.73
2019-02-04T11:06:33.156Z,25.93
2019-02-04T11:08:59.174Z,32.50
2019-02-04T11:11:25.307Z,26.93
2019-02-04T11:13:51.454Z,30.07
2019-02-04T11:16:17.735Z,38.03
2019-02-04T11:18:43.926Z,24.00
2019-02-04T11:21:10.023Z,26.77
2019-02-04T11:23:36.184Z,30.97
2019-02-04T11:26:02.421Z,24.57
2019-02-04T11:28:28.522Z,35.83
2019-02-04T11:30:56.822Z,26.90
2019-02-04T11:33:22.950Z,27.07
2019-02-04T11:35:49.075Z,33.43
2019-02-04T11:38:15.250Z,27.23
2019-02-04T11:40:41.350Z,33.30
2019-02-04T11:43:08.086Z,27.47
2019-02-04T11:45:34.255Z,38.63
2019-02-04T11:48:00.677Z,25.60
2019-02-04T11:50:26.833Z,20.83
2019-02-04T11:52:52.848Z,14.83
2019-02-04T11:55:18.979Z,14.77
2019-02-04T11:57:45.006Z,16.17
2019-02-04T12:00:14.752Z,19.83
2019-02-04T12:02:41.204Z,22.43
2019-02-04T12:05:10.920Z,16.60
2019-02-04T12:07:36.932Z,13.20
2019-02-04T12:10:29.404Z,15.90
2019-02-04T12:12:55.821Z,13.90
2019-02-04T12:15:21.888Z,21.43
2019-02-04T12:17:48.012Z,12.47
2019-02-04T12:20:15.958Z,10.13
2019-02-04T12:22:41.988Z,10.53
2019-02-04T12:25:10.428Z,9.13
2019-02-04T12:27:36.439Z,66.63
2019-02-04T12:30:09.063Z,17.40
2019-02-04T12:32:35.075Z,13.60
2019-02-04T12:35:01.108Z,13.17
2019-02-04T12:37:27.175Z,12.47
2019-02-04T12:39:53.192Z,12.43
2019-02-04T12:42:19.227Z,10.70
2019-02-04T12:44:45.304Z,11.37
2019-02-04T12:47:12.057Z,11.77
2019-02-04T12:49:38.067Z,6.77
2019-02-04T12:52:04.104Z,7.03
2019-02-04T12:54:30.121Z,10.33
2019-02-04T12:56:56.149Z,9.30
2019-02-04T12:59:22.175Z,10.57
2019-02-04T13:01:48.300Z,6.53
2019-02-04T13:04:14.323Z,6.43
2019-02-04T13:06:40.336Z,7.20
2019-02-04T13:09:06.661Z,7.03
2019-02-04T13:11:32.676Z,9.00
2019-02-04T13:13:58.711Z,12.20
2019-02-04T13:16:24.738Z,11.47
2019-02-04T13:18:50.774Z,7.73
2019-02-04T13:21:16.783Z,6.17
2019-02-04T13:23:42.816Z,9.50
2019-02-04T13:26:08.827Z,7.87
2019-02-04T13:28:34.847Z,5.73
2019-02-04T13:31:01.312Z,10.17
2019-02-04T13:33:27.367Z,17.60
2019-02-04T13:35:53.392Z,9.03
2019-02-04T13:38:19.406Z,11.17
2019-02-04T13:40:45.431Z,9.30
2019-02-04T13:43:11.547Z,6.47
2019-02-04T13:45:37.595Z,8.17
2019-02-04T13:48:03.628Z,5.33
2019-02-04T13:50:30.049Z,5.43
2019-02-04T13:52:56.190Z,6.00
2019-02-04T13:55:36.520Z,6.70
2019-02-04T13:58:02.961Z,7.63
2019-02-04T14:00:28.992Z,5.37
2019-02-04T14:03:17.647Z,5.97
2019-02-04T14:05:42.824Z,5.17
2019-02-04T14:08:08.879Z,4.97
2019-02-04T14:10:37.516Z,6.07
2019-02-04T14:13:04.227Z,5.77
2019-02-04T14:15:30.301Z,5.07
2019-02-04T14:17:56.712Z,6.10
2019-02-04T14:20:44.537Z,5.80
2019-02-04T14:23:10.787Z,5.27
2019-02-04T14:25:36.823Z,3.90
2019-02-04T14:28:03.718Z,3.40
2019-02-04T14:30:33.283Z,5.90
2019-02-04T14:32:59.331Z,4.80
2019-02-04T14:35:25.366Z,4.73
2019-02-04T14:37:51.379Z,5.30
2019-02-04T14:40:18.883Z,3.63
2019-02-04T14:42:48.727Z,5.80
2019-02-04T14:45:21.603Z,5.70
2019-02-04T14:48:02.809Z,6.37
2019-02-04T14:50:41.220Z,4.73
2019-02-04T14:53:23.036Z,5.07
2019-02-04T14:56:01.896Z,7.73
2019-02-04T14:58:37.934Z,5.67
2019-02-04T15:01:07.791Z,4.20
2019-02-04T15:03:38.012Z,8.47
2019-02-04T15:06:10.992Z,12.20
2019-02-04T15:08:46.853Z,10.87
2019-02-04T15:11:22.984Z,4.73
2019-02-04T15:14:02.368Z,4.60
2019-02-04T15:16:35.483Z,6.13
2019-02-04T15:19:11.581Z,6.47
2019-02-04T15:21:47.808Z,3.63
2019-02-04T15:24:20.828Z,5.07
2019-02-04T15:27:07.559Z,3.80
2019-02-04T15:29:46.162Z,6.27
2019-02-04T15:32:29.472Z,7.93
2019-02-04T15:35:05.616Z,10.67
2019-02-04T15:37:47.800Z,5.10
2019-02-04T15:40:23.480Z,5.30
2019-02-04T15:42:59.384Z,8.80
2019-02-04T15:45:54.236Z,12.10
2019-02-04T15:48:23.395Z,5.20
2019-02-04T15:50:53.228Z,11.03
2019-02-04T15:53:19.263Z,7.67
2019-02-04T15:55:45.395Z,6.03
2019-02-04T15:58:11.433Z,5.57
2019-02-04T16:00:38.295Z,7.77
2019-02-04T16:03:04.637Z,9.60
2019-02-04T16:05:30.671Z,5.37
2019-02-04T16:07:56.787Z,18.70
2019-02-04T16:10:22.816Z,16.73
2019-02-04T16:12:48.852Z,14.97
2019-02-04T16:15:15.184Z,15.07
2019-02-04T16:17:41.218Z,9.73
2019-02-04T16:20:13.363Z,14.87
2019-02-04T16:22:39.381Z,9.63
2019-02-04T16:25:08.423Z,9.50
2019-02-04T16:27:34.459Z,14.77
2019-02-04T16:30:00.556Z,12.03
2019-02-04T16:32:26.644Z,11.13
2019-02-04T16:34:52.677Z,12.60
2019-02-04T16:37:18.707Z,14.80
2019-02-04T16:39:45.120Z,14.77
2019-02-04T16:42:11.144Z,19.90
2019-02-04T16:44:37.151Z,9.53
2019-02-04T16:47:03.197Z,34.27
2019-02-04T16:49:29.223Z,309.67
2019-02-04T16:51:55.247Z,294.53
2019-02-04T16:54:21.293Z,125.77
2019-02-04T16:56:47.360Z,32.73
2019-02-04T16:59:13.380Z,22.27
2019-02-04T17:01:39.424Z,19.47
2019-02-04T17:04:05.511Z,16.80
2019-02-04T17:06:34.524Z,12.03
2019-02-04T17:09:02.323Z,14.33
2019-02-04T17:11:28.535Z,12.43
2019-02-04T17:13:54.608Z,9.67
2019-02-04T17:16:20.643Z,17.10
2019-02-04T17:18:46.748Z,21.60
2019-02-04T17:21:12.791Z,20.30
2019-02-04T17:23:38.829Z,31.73
2019-02-04T17:26:04.847Z,32.73
2019-02-04T17:28:30.947Z,47.80
2019-02-04T17:30:57.008Z,53.83
2019-02-04T17:33:23.039Z,47.57
2019-02-04T17:35:49.051Z,55.90
2019-02-04T17:38:15.119Z,49.73
2019-02-04T17:40:41.455Z,52.57
2019-02-04T17:43:07.467Z,38.50
2019-02-04T17:45:33.499Z,37.20
2019-02-04T17:47:59.550Z,35.27
2019-02-04T17:50:25.583Z,34.03
2019-02-04T17:52:51.630Z,17.53
2019-02-04T17:55:27.872Z,19.50
2019-02-04T17:57:54.091Z,28.17
2019-02-04T18:00:24.866Z,14.70
2019-02-04T18:02:51.016Z,22.47
2019-02-04T18:05:17.151Z,17.30
2019-02-04T18:07:43.271Z,28.13
2019-02-04T18:10:12.891Z,35.30
2019-02-04T18:12:39.037Z,25.87
2019-02-04T18:15:09.089Z,42.23
2019-02-04T18:17:35.203Z,22.23
2019-02-04T18:20:01.223Z,16.40
2019-02-04T18:22:27.298Z,16.00
2019-02-04T18:24:53.400Z,18.30
2019-02-04T18:27:19.412Z,15.77
2019-02-04T18:29:45.458Z,11.47
2019-02-04T18:32:12.012Z,12.73
2019-02-04T18:34:38.027Z,23.83
2019-02-04T18:37:04.043Z,20.07
2019-02-04T18:39:30.071Z,16.67
2019-02-04T18:41:56.158Z,12.30
2019-02-04T18:44:22.195Z,14.63
2019-02-04T18:46:48.535Z,16.63
2019-02-04T18:49:14.595Z,14.70
2019-02-04T18:51:40.612Z,16.07
2019-02-04T18:54:06.647Z,11.63
2019-02-04T18:56:32.685Z,11.67
2019-02-04T18:58:58.700Z,19.03
2019-02-04T19:01:24.768Z,19.40
2019-02-04T19:04:06.796Z,11.73
2019-02-04T19:06:32.868Z,14.53
2019-02-04T19:08:58.879Z,13.53
2019-02-04T19:11:24.891Z,28.53
2019-02-04T19:13:50.931Z,19.90
2019-02-04T19:16:36.821Z,19.97
2019-02-04T19:19:03.270Z,18.80
2019-02-04T19:21:29.291Z,22.10
2019-02-04T19:23:55.372Z,15.10
2019-02-04T19:26:21.383Z,15.93
2019-02-04T19:28:47.415Z,18.40
2019-02-04T19:31:13.680Z,20.50
2019-02-04T19:33:39.815Z,20.67
2019-02-04T19:36:08.549Z,20.50
2019-02-04T19:38:34.699Z,15.23
2019-02-04T19:41:00.720Z,14.13
2019-02-04T19:43:27.776Z,19.30
2019-02-04T19:45:53.827Z,21.00
2019-02-04T19:48:19.932Z,34.37
2019-02-04T19:50:47.077Z,18.57
2019-02-04T19:53:14.097Z,24.03
2019-02-04T19:55:40.144Z,22.50
2019-02-04T19:58:06.676Z,23.93
2019-02-04T20:00:32.708Z,25.20
2019-02-04T20:02:58.755Z,28.07
2019-02-04T20:05:26.412Z,29.37
2019-02-04T20:07:52.449Z,21.13
2019-02-04T20:10:19.603Z,23.73
2019-02-04T20:12:45.639Z,21.50
2019-02-04T20:15:24.492Z,25.60
2019-02-04T20:17:50.535Z,28.23
2019-02-04T20:20:16.711Z,22.97
2019-02-04T20:22:42.751Z,28.37
2019-02-04T20:25:15.604Z,26.33
2019-02-04T20:27:41.619Z,27.20
2019-02-04T20:30:19.357Z,24.57
2019-02-04T20:32:45.444Z,25.70
2019-02-04T20:35:11.487Z,27.73
2019-02-04T20:37:37.644Z,34.83
2019-02-04T20:40:07.461Z,30.37
2019-02-04T20:42:33.552Z,27.83
2019-02-04T20:44:59.571Z,33.43
2019-02-04T20:47:25.607Z,23.83
2019-02-04T20:49:52.148Z,23.37
2019-02-04T20:52:18.270Z,10.07
2019-02-04T20:54:45.302Z,16.00
2019-02-04T20:57:11.556Z,16.40
2019-02-04T20:59:37.598Z,21.07
2019-02-04T21:02:04.689Z,21.33
2019-02-04T21:04:30.951Z,16.03
2019-02-04T21:06:56.991Z,19.90
2019-02-04T21:09:23.413Z,16.37
2019-02-04T21:11:49.451Z,9.63
2019-02-04T21:14:15.461Z,17.03
2019-02-04T21:16:41.472Z,11.70
2019-02-04T21:19:07.609Z,18.17
2019-02-04T21:21:33.691Z,13.80
2019-02-04T21:23:59.728Z,11.50
2019-02-04T21:26:25.735Z,17.43
2019-02-04T21:28:51.863Z,22.77
2019-02-04T21:31:18.119Z,19.00
2019-02-04T21:33:44.131Z,23.73
2019-02-04T21:36:10.168Z,21.23
2019-02-04T21:38:36.188Z,19.30
2019-02-04T21:41:02.385Z,20.80
2019-02-04T21:43:28.576Z,21.47
2019-02-04T21:45:54.612Z,18.60
2019-02-04T21:48:20.632Z,17.13
2019-02-04T21:50:47.195Z,17.03
2019-02-04T21:53:13.203Z,17.53
2019-02-04T21:55:39.249Z,14.87
2019-02-04T21:58:05.328Z,18.63
2019-02-04T22:00:36.472Z,21.43
2019-02-04T22:03:02.507Z,13.33
2019-02-04T22:05:30.747Z,18.20
2019-02-04T22:07:56.983Z,14.07
2019-02-04T22:10:25.211Z,18.50
2019-02-04T22:12:51.274Z,15.13
2019-02-04T22:15:17.303Z,16.17
2019-02-04T22:17:43.514Z,13.57
2019-02-04T22:20:12.082Z,16.93
2019-02-04T22:22:38.111Z,17.00
2019-02-04T22:25:06.959Z,13.80
2019-02-04T22:27:33.566Z,21.90
2019-02-04T22:30:14.772Z,20.57
2019-02-04T22:32:29.860Z,23.80
2019-02-04T22:34:55.901Z,33.45
2019-02-04T22:37:21.970Z,28.30
2019-02-04T22:39:47.983Z,25.53
2019-02-04T22:42:14.019Z,27.40
2019-02-04T22:44:40.107Z,26.15
2019-02-04T22:47:06.147Z,25.50
2019-02-04T22:49:32.487Z,21.97
2019-02-04T22:51:58.554Z,27.30
2019-02-04T22:54:24.563Z,28.00
2019-02-04T22:56:50.595Z,27.53
2019-02-04T22:59:16.629Z,21.50
2019-02-04T23:01:43.985Z,22.73
2019-02-04T23:04:29.881Z,29.30
2019-02-04T23:06:55.917Z,26.90
2019-02-04T23:09:21.936Z,25.03
2019-02-04T23:11:47.967Z,29.97
2019-02-04T23:14:14.239Z,27.20
2019-02-04T23:16:40.412Z,24.13
2019-02-04T23:19:06.455Z,26.87
2019-02-04T23:21:32.875Z,26.50
2019-02-04T23:23:58.937Z,26.13
2019-02-04T23:26:24.972Z,26.83
2019-02-04T23:28:51.012Z,22.17
2019-02-04T23:31:17.023Z,25.37
2019-02-04T23:33:43.075Z,25.97
2019-02-04T23:36:09.087Z,25.90
2019-02-04T23:38:35.104Z,21.53
2019-02-04T23:41:01.571Z,28.33
2019-02-04T23:43:27.605Z,28.40
2019-02-04T23:45:53.627Z,25.03
2019-02-04T23:48:19.975Z,22.90
2019-02-04T23:50:46.007Z,26.00
2019-02-04T23:53:12.056Z,23.70
2019-02-04T23:55:38.132Z,20.37
2019-02-04T23:58:04.151Z,24.63
